Time;durP1;ratioP1;P1;durP2;ratioP2;P2;SDS_P1;SDS_P2;PMS_P1;PMS_P2;Temp;Humidity;BMP_temperature;BMP_pressure;BME280_temperature;BME280_humidity;BME280_pressure;Samples;Min_cycle;Max_cycle;Signal;HPM_P1;HPM_P2
2023/11/30 00:00:49;;;;;;;6.40;3.65;;;;;;;1.24;77.92;98250.44;6137540;23;20452;-89
2023/11/30 00:03:15;;;;;;;6.30;3.67;;;;;;;1.39;77.76;98257.63;6135969;23;20025;-88
2023/11/30 00:05:41;;;;;;;4.60;3.30;;;;;;;1.40;77.76;98251.97;6163058;23;20096;-89
2023/11/30 00:08:08;;;;;;;5.72;2.97;;;;;;;1.54;76.98;98256.72;6112795;23;20021;-90
2023/11/30 00:10:36;;;;;;;4.60;3.07;;;;;;;1.65;76.87;98277.91;6136898;23;20451;-89
2023/11/30 00:13:04;;;;;;;6.45;3.50;;;;;;;1.65;76.81;98269.81;6136820;23;20024;-89
2023/11/30 00:15:55;;;;;;;6.90;3.60;;;;;;;0.97;76.90;98178.22;6137826;22;20015;-90
2023/11/30 00:21:08;;;;;;;8.00;3.83;;;;;;;1.19;77.22;98204.69;6143030;23;20021;-90
2023/11/30 00:23:34;;;;;;;6.85;3.70;;;;;;;1.52;77.38;98258.88;6168345;23;20108;-91
2023/11/30 00:26:00;;;;;;;7.97;3.15;;;;;;;0.92;76.80;98178.22;6141875;23;20024;-90
2023/11/30 00:28:27;;;;;;;7.55;4.05;;;;;;;1.31;76.89;98215.13;6194677;23;20021;-89
2023/11/30 00:30:53;;;;;;;8.00;3.90;;;;;;;1.52;76.37;98234.66;6144174;23;20021;-89
2023/11/30 00:33:45;;;;;;;7.07;3.67;;;;;;;1.64;75.91;98251.28;6168225;23;20052;-90
2023/11/30 00:36:11;;;;;;;8.38;4.10;;;;;;;1.43;75.92;98234.47;6194190;23;20024;-90
2023/11/30 00:38:37;;;;;;;8.23;3.97;;;;;;;1.28;75.61;98188.78;6169979;23;20016;-89
2023/11/30 00:41:03;;;;;;;7.05;3.53;;;;;;;1.56;75.05;98241.91;6169276;23;20020;-91
2023/11/30 00:43:29;;;;;;;5.60;2.88;;;;;;;1.32;75.11;98184.44;6195330;23;20017;-91
2023/11/30 00:46:02;;;;;;;5.07;3.33;;;;;;;1.01;75.13;98135.41;6146046;23;20021;-92
2023/11/30 00:48:38;;;;;;;6.43;3.67;;;;;;;1.43;75.32;98204.03;6144637;23;20108;-88
2023/11/30 00:51:07;;;;;;;7.93;3.70;;;;;;;1.48;75.50;98212.06;6167670;23;20021;-89
2023/11/30 00:53:33;;;;;;;8.20;4.30;;;;;;;1.20;76.25;98162.47;6167798;23;20021;-91
2023/11/30 00:56:14;;;;;;;6.50;3.33;;;;;;;0.94;75.89;98115.00;6142634;23;20024;-89
2023/11/30 00:58:41;;;;;;;5.90;3.83;;;;;;;1.24;76.90;98169.69;6241135;22;20089;-89
2023/11/30 01:01:16;;;;;;;4.93;2.92;;;;;;;1.46;76.46;98190.81;6212564;22;20039;-88
2023/11/30 01:03:42;;;;;;;9.45;4.20;;;;;;;1.39;76.23;98166.91;6233558;22;20026;-90
2023/11/30 01:06:08;;;;;;;7.40;4.47;;;;;;;1.57;76.08;98178.88;6234293;22;20050;-88
2023/11/30 01:08:55;;;;;;;11.10;5.47;;;;;;;1.67;75.92;98209.50;6235584;22;20024;-91
2023/11/30 01:11:26;;;;;;;8.25;4.75;;;;;;;1.46;75.70;98182.75;6150131;23;20080;-90
2023/11/30 01:14:18;;;;;;;10.65;5.85;;;;;;;1.69;75.65;98193.84;6114020;23;20480;-91
2023/11/30 01:16:44;;;;;;;9.52;5.45;;;;;;;1.45;76.15;98185.69;6085024;23;20025;-90
2023/11/30 01:19:11;;;;;;;10.45;5.18;;;;;;;1.30;76.50;98167.78;6133192;23;20510;-89
2023/11/30 01:21:44;;;;;;;8.40;4.93;;;;;;;1.28;76.56;98169.94;6109401;23;20022;-88
2023/11/30 01:24:10;;;;;;;9.15;5.53;;;;;;;1.54;76.74;98184.81;6133065;23;20021;-89
2023/11/30 01:26:36;;;;;;;8.70;5.25;;;;;;;1.65;76.66;98186.31;6077871;23;20022;-88
2023/11/30 01:29:05;;;;;;;9.05;5.20;;;;;;;1.54;75.95;98154.38;6133941;23;20017;-89
2023/11/30 01:31:32;;;;;;;9.27;5.53;;;;;;;1.43;75.51;98136.72;6109686;23;20021;-89
2023/11/30 01:33:58;;;;;;;7.83;4.97;;;;;;;1.34;75.59;98114.97;6109148;23;20029;-89
2023/11/30 01:36:26;;;;;;;7.78;4.28;;;;;;;1.22;75.27;98095.69;6084263;23;20017;-88
2023/11/30 01:38:52;;;;;;;11.15;4.38;;;;;;;1.24;75.47;98104.28;6060337;23;20028;-89
2023/11/30 01:41:36;;;;;;;6.97;4.22;;;;;;;1.20;75.35;98084.41;6108427;23;20026;-89
2023/11/30 01:44:03;;;;;;;7.45;4.30;;;;;;;1.47;74.95;98146.63;6134517;23;20018;-88
2023/11/30 01:46:37;;;;;;;5.63;3.40;;;;;;;1.80;75.00;98180.03;6133678;23;20021;-89
2023/11/30 01:49:08;;;;;;;7.57;4.18;;;;;;;1.46;74.72;98139.66;6195666;23;20024;-89
2023/11/30 01:51:47;;;;;;;8.03;4.07;;;;;;;1.61;74.83;98152.97;6226208;23;20021;-91
2023/11/30 01:54:13;;;;;;;7.28;3.47;;;;;;;1.40;74.64;98128.13;6225505;23;20302;-90
2023/11/30 01:56:40;;;;;;;9.50;4.05;;;;;;;1.76;75.12;98170.09;6233035;23;20020;-90
2023/11/30 01:59:07;;;;;;;;;;;;;;;1.76;74.80;98175.50;6203996;23;20027;-89
2023/11/30 02:01:35;;;;;;;5.50;3.42;;;;;;;1.39;75.09;98113.06;6179608;23;19916;-88
2023/11/30 02:04:21;;;;;;;;;;;;;;;1.75;74.91;98171.16;6205709;23;20016;-89
2023/11/30 02:06:53;;;;;;;4.70;2.83;;;;;;;1.08;75.13;98080.19;6174734;23;19912;-89
2023/11/30 02:09:19;;;;;;;6.32;3.08;;;;;;;1.34;75.12;98106.91;6223243;23;20016;-88
2023/11/30 02:11:45;;;;;;;3.97;3.00;;;;;;;1.59;75.15;98143.56;6183614;23;20084;-90
2023/11/30 02:14:11;;;;;;;6.20;3.70;;;;;;;1.69;75.11;98158.81;6198500;23;20021;-89
2023/11/30 02:16:37;;;;;;;5.43;3.03;;;;;;;1.81;74.56;98159.25;6172637;23;20021;-88
2023/11/30 02:19:03;;;;;;;5.80;3.47;;;;;;;1.62;74.81;98127.66;6197388;23;20076;-88
2023/11/30 02:21:30;;;;;;;5.85;3.50;;;;;;;1.69;74.48;98139.97;6203047;23;20020;-87
2023/11/30 02:23:58;;;;;;;6.18;3.50;;;;;;;1.59;74.53;98127.41;6178063;23;20070;-89
2023/11/30 02:26:25;;;;;;;5.47;3.50;;;;;;;1.69;73.94;98115.72;6203426;23;20016;-88
2023/11/30 02:28:51;;;;;;;6.57;3.17;;;;;;;1.74;74.07;98148.81;6204732;23;20043;-88
2023/11/30 02:31:17;;;;;;;6.43;3.75;;;;;;;1.57;73.99;98116.91;6204856;23;20012;-88
2023/11/30 02:33:43;;;;;;;6.63;3.67;;;;;;;1.96;73.92;98158.31;6222202;23;20433;-88
2023/11/30 02:36:10;;;;;;;7.55;4.18;;;;;;;1.65;74.22;98134.34;6197813;23;20023;-88
2023/11/30 02:38:36;;;;;;;12.65;3.67;;;;;;;1.90;74.11;98160.25;6222494;23;20017;-89
2023/11/30 02:41:02;;;;;;;7.60;4.18;;;;;;;1.82;73.99;98142.81;6222522;23;20023;-87
2023/11/30 02:43:56;;;;;;;7.00;4.05;;;;;;;2.00;73.69;98167.44;6223003;23;20020;-88
2023/11/30 02:46:23;;;;;;;6.88;4.18;;;;;;;1.85;74.13;98127.97;6147528;23;20029;-88
2023/11/30 02:48:49;;;;;;;8.15;4.80;;;;;;;1.72;73.98;98123.25;6174022;23;20462;-88
2023/11/30 02:51:15;;;;;;;10.57;4.82;;;;;;;1.65;73.70;98105.53;6223255;23;20070;-90
2023/11/30 02:53:41;;;;;;;7.93;4.35;;;;;;;1.84;73.83;98116.38;6222565;23;20112;-89
2023/11/30 02:56:08;;;;;;;13.10;4.28;;;;;;;1.93;73.36;98148.13;6222425;23;20016;-87
2023/11/30 02:58:34;;;;;;;6.00;4.13;;;;;;;1.67;73.44;98118.72;6197887;23;20020;-86
2023/11/30 03:01:02;;;;;;;8.43;4.40;;;;;;;1.58;73.36;98088.09;6222299;23;20023;-88
2023/11/30 03:03:28;;;;;;;9.13;4.80;;;;;;;1.67;73.42;98083.69;6223225;23;20031;-93
2023/11/30 03:05:55;;;;;;;7.68;4.82;;;;;;;1.53;73.26;98066.63;6198949;23;20482;-90
2023/11/30 03:08:21;;;;;;;8.05;4.60;;;;;;;2.26;72.89;98154.50;6197539;23;20013;-88
2023/11/30 03:10:49;;;;;;;6.22;4.53;;;;;;;2.02;72.97;98147.22;6223626;23;20023;-88
2023/11/30 03:13:15;;;;;;;9.13;4.97;;;;;;;2.07;72.83;98136.34;6197891;23;20020;-91
2023/11/30 03:15:53;;;;;;;11.23;4.90;;;;;;;1.83;72.69;98087.03;6227256;23;20092;-89
2023/11/30 03:18:31;;;;;;;8.85;5.03;;;;;;;2.27;72.45;98156.09;6202190;23;20009;-88
2023/11/30 03:20:58;;;;;;;10.73;4.85;;;;;;;1.96;72.49;98102.53;6226133;23;20076;-88
2023/11/30 03:23:24;;;;;;;10.23;4.35;;;;;;;2.15;72.71;98134.13;6173950;23;20024;-88
2023/11/30 03:25:50;;;;;;;8.85;4.55;;;;;;;1.87;72.80;98112.31;6173544;23;20114;-88
2023/11/30 03:28:16;;;;;;;8.27;4.13;;;;;;;1.85;73.15;98109.09;6172159;23;20020;-86
2023/11/30 03:30:42;;;;;;;6.20;4.07;;;;;;;2.21;73.43;98141.06;6197868;23;20020;-87
2023/11/30 03:33:08;;;;;;;14.60;4.95;;;;;;;2.38;72.78;98146.00;6223624;23;20013;-88
2023/11/30 03:35:34;;;;;;;7.40;4.57;;;;;;;2.25;72.66;98129.44;6197327;23;20008;-89
2023/11/30 03:38:00;;;;;;;9.93;4.40;;;;;;;2.14;72.72;98103.66;6223868;23;20466;-88
2023/11/30 03:40:29;;;;;;;8.48;4.43;;;;;;;2.24;72.72;98108.13;6175048;23;20024;-91
2023/11/30 03:42:55;;;;;;;10.15;5.18;;;;;;;2.04;72.75;98093.00;6199599;23;20009;-88
2023/11/30 03:45:22;;;;;;;9.88;5.13;;;;;;;1.82;72.91;98061.19;6175211;23;20024;-89
2023/11/30 03:47:49;;;;;;;8.13;5.28;;;;;;;2.13;73.50;98126.34;6227434;23;20301;-88
2023/11/30 03:50:15;;;;;;;11.02;5.35;;;;;;;2.10;73.68;98089.97;6177456;23;20318;-89
2023/11/30 03:52:42;;;;;;;10.65;5.82;;;;;;;2.20;73.63;98110.59;6204024;23;20044;-89
2023/11/30 03:55:23;;;;;;;11.63;5.70;;;;;;;2.25;73.78;98096.25;6226339;23;20359;-88
2023/11/30 03:57:49;;;;;;;9.57;5.57;;;;;;;2.24;74.13;98106.25;6182274;23;20105;-89
2023/11/30 04:00:20;;;;;;;;;;;;;;;2.52;74.36;98139.63;6230309;23;20017;-88
2023/11/30 04:02:59;;;;;;;9.43;4.95;;;;;;;2.52;74.01;98118.03;6237390;23;19904;-89
2023/11/30 04:05:31;;;;;;;8.38;5.25;;;;;;;2.47;73.67;98103.81;6210763;23;20084;-89
2023/11/30 04:08:00;;;;;;;8.57;4.75;;;;;;;2.62;74.04;98135.19;6163566;23;20076;-89
2023/11/30 04:10:27;;;;;;;8.80;4.75;;;;;;;2.24;74.08;98065.00;6194020;22;20057;-87
2023/11/30 04:12:53;;;;;;;9.37;5.13;;;;;;;2.43;74.28;98102.78;6270638;22;20046;-86
2023/11/30 04:15:20;;;;;;;10.68;5.00;;;;;;;2.75;74.28;98142.56;6268810;22;20039;-86
2023/11/30 04:17:48;;;;;;;8.23;4.78;;;;;;;2.47;74.50;98085.72;6217091;22;20023;-89
2023/11/30 04:20:16;;;;;;;9.80;4.97;;;;;;;2.58;74.13;98099.88;6271086;22;20026;-89
2023/11/30 04:22:50;;;;;;;7.97;4.70;;;;;;;2.41;73.88;98073.41;6300198;22;20011;-88
2023/11/30 04:25:22;;;;;;;6.43;4.90;;;;;;;2.73;73.69;98110.47;6208382;23;20012;-88
2023/11/30 04:27:51;;;;;;;8.00;5.13;;;;;;;2.65;73.64;98111.13;6186486;23;20005;-90
2023/11/30 04:30:20;;;;;;;7.28;4.80;;;;;;;2.46;73.74;98067.94;6209942;23;20025;-88
2023/11/30 04:32:46;;;;;;;7.85;4.38;;;;;;;2.43;73.71;98076.63;6205450;23;20088;-86
2023/11/30 04:35:12;;;;;;;6.40;4.28;;;;;;;2.81;74.41;98120.63;6229208;23;20082;-86
2023/11/30 04:37:41;;;;;;;5.82;4.20;;;;;;;2.62;73.84;98097.44;6229205;23;20024;-89
2023/11/30 04:40:39;;;;;;;13.77;5.43;;;;;;;2.78;73.88;98128.47;6185500;23;20025;-91
2023/11/30 04:43:17;;;;;;;9.18;4.40;;;;;;;2.24;74.00;98027.25;6096457;23;20463;-89
2023/11/30 04:45:49;;;;;;;8.32;5.32;;;;;;;2.69;74.01;98084.38;6122797;23;20002;-91
2023/11/30 04:48:15;;;;;;;8.70;4.40;;;;;;;2.53;74.13;98073.78;6145440;23;20026;-88
2023/11/30 04:50:42;;;;;;;7.78;4.68;;;;;;;2.90;74.32;98133.44;6144285;23;20029;-91
2023/11/30 04:53:08;;;;;;;9.70;4.83;;;;;;;2.73;73.89;98101.56;6125218;23;20053;-90
2023/11/30 04:55:35;;;;;;;8.52;5.03;;;;;;;2.95;74.31;98122.59;6146171;23;20507;-86
2023/11/30 04:58:02;;;;;;;9.23;5.13;;;;;;;2.95;73.89;98101.81;6136541;23;20104;-86
2023/11/30 05:00:28;;;;;;;10.52;5.50;;;;;;;2.92;74.35;98102.38;6136129;23;20032;-87
2023/11/30 05:02:55;;;;;;;9.73;5.22;;;;;;;2.77;73.87;98075.59;6129986;23;20028;-85
2023/11/30 05:05:22;;;;;;;11.03;4.97;;;;;;;3.21;74.03;98123.00;6142850;23;20013;-85
2023/11/30 05:07:48;;;;;;;;;;;;;;;3.19;73.53;98136.00;6121268;23;20259;-90
2023/11/30 05:10:14;;;;;;;8.23;4.60;;;;;;;3.09;73.47;98119.97;6148745;23;19912;-89
2023/11/30 05:12:41;;;;;;;7.88;4.63;;;;;;;3.15;73.31;98114.19;6171584;23;20025;-87
2023/11/30 05:15:08;;;;;;;9.77;4.82;;;;;;;2.83;72.92;98053.66;6148324;23;20032;-87
2023/11/30 05:17:36;;;;;;;9.35;5.20;;;;;;;3.30;73.03;98127.44;6125931;23;20002;-88
2023/11/30 05:20:04;;;;;;;7.65;5.15;;;;;;;2.79;73.04;98066.13;6217125;22;20039;-86
2023/11/30 05:22:34;;;;;;;8.73;5.10;;;;;;;3.13;73.32;98115.56;6300364;22;19999;-91
2023/11/30 05:25:02;;;;;;;6.93;4.45;;;;;;;3.02;73.13;98074.44;6295391;22;20026;-85
2023/11/30 05:27:30;;;;;;;9.95;5.18;;;;;;;3.27;72.83;98108.31;6267458;22;20047;-91
2023/11/30 05:29:55;;;;;;;6.95;4.75;;;;;;;2.99;72.71;98073.13;6221718;22;20003;-90
2023/11/30 05:32:22;;;;;;;7.70;5.35;;;;;;;3.27;72.94;98103.72;6273081;22;20072;-88
2023/11/30 05:34:50;;;;;;;7.82;5.15;;;;;;;3.19;73.13;98098.19;6209821;23;20375;-87
2023/11/30 05:37:16;;;;;;;10.65;5.95;;;;;;;3.38;72.58;98131.38;6201974;23;20021;-87
2023/11/30 05:39:43;;;;;;;8.82;5.63;;;;;;;3.14;73.12;98106.38;6180288;23;20020;-86
2023/11/30 05:42:10;;;;;;;9.18;5.60;;;;;;;3.09;73.16;98082.16;6229022;23;20020;-86
2023/11/30 05:44:37;;;;;;;8.73;5.47;;;;;;;3.45;73.25;98153.41;6206857;23;20017;-91
2023/11/30 05:47:05;;;;;;;10.63;6.47;;;;;;;3.12;73.37;98117.47;6237732;23;20020;-87
2023/11/30 05:49:32;;;;;;;10.88;5.95;;;;;;;3.45;73.37;98139.13;6211791;23;20004;-88
2023/11/30 05:51:58;;;;;;;;;;;;;;;3.58;72.74;98162.66;6189442;23;20051;-88
2023/11/30 05:54:24;;;;;;;9.70;5.90;;;;;;;3.14;72.73;98103.66;6189248;23;19924;-87
2023/11/30 05:57:14;;;;;;;10.38;6.50;;;;;;;3.02;73.45;98098.72;6092585;23;20069;-90
2023/11/30 05:59:40;;;;;;;10.30;6.00;;;;;;;3.22;73.73;98122.72;6110286;23;20014;-89
2023/11/30 06:02:29;;;;;;;10.65;6.43;;;;;;;3.48;73.26;98162.84;6066255;23;20018;-91
2023/11/30 06:04:55;;;;;;;9.57;6.47;;;;;;;3.45;73.17;98158.03;6034076;23;20074;-89
2023/11/30 06:07:23;;;;;;;10.80;6.82;;;;;;;3.22;73.27;98111.13;6057191;23;20018;-89
2023/11/30 06:09:59;;;;;;;14.75;7.70;;;;;;;3.63;72.48;98164.47;6087420;23;19995;-90
2023/11/30 06:12:26;;;;;;;14.90;8.23;;;;;;;3.36;72.95;98147.06;6085523;23;20018;-91
2023/11/30 06:15:42;;;;;;;16.75;8.43;;;;;;;3.44;72.64;98168.00;6064836;23;20034;-87
2023/11/30 06:18:23;;;;;;;14.63;8.07;;;;;;;3.21;74.02;98166.19;6081796;23;20018;-89
2023/11/30 06:20:49;;;;;;;17.25;7.93;;;;;;;2.78;73.75;98098.78;6039380;23;20007;-88
2023/11/30 06:23:15;;;;;;;16.02;8.20;;;;;;;2.99;74.20;98129.81;6058764;23;20033;-87
2023/11/30 06:25:42;;;;;;;20.83;8.68;;;;;;;3.28;74.14;98172.84;6057526;23;20023;-90
2023/11/30 06:28:12;;;;;;;13.07;8.00;;;;;;;3.43;73.82;98169.09;6080112;23;20022;-89
2023/11/30 06:36:34;;;;;;;15.10;7.70;;;;;;;3.49;73.65;98175.25;6035598;23;20007;-86
2023/11/30 06:39:00;;;;;;;15.95;8.32;;;;;;;3.38;73.49;98169.19;6055300;23;20019;-87
2023/11/30 06:41:32;;;;;;;13.68;8.15;;;;;;;3.28;73.37;98137.75;6089274;23;20021;-87
2023/11/30 06:43:58;;;;;;;14.13;8.30;;;;;;;3.47;72.54;98126.88;6168470;23;20013;-90
2023/11/30 06:46:28;;;;;;;15.27;8.57;;;;;;;3.68;71.88;98140.88;6167617;23;20017;-93
2023/11/30 06:48:55;;;;;;;14.43;8.95;;;;;;;3.58;71.68;98126.75;6145469;23;20481;-90
2023/11/30 06:51:21;;;;;;;14.45;8.70;;;;;;;3.80;71.37;98132.28;6145322;23;20017;-87
2023/11/30 06:53:48;;;;;;;16.30;9.23;;;;;;;3.43;70.97;98114.28;6163036;23;20029;-87
2023/11/30 06:56:14;;;;;;;18.10;9.02;;;;;;;3.67;70.89;98146.56;6111985;23;20022;-86
2023/11/30 06:58:40;;;;;;;20.33;8.88;;;;;;;3.59;71.25;98148.06;6139094;23;20017;-89
2023/11/30 07:01:09;;;;;;;18.77;9.75;;;;;;;3.67;71.14;98163.56;6164339;23;20639;-90
2023/11/30 07:03:35;;;;;;;13.98;8.63;;;;;;;3.79;70.82;98203.66;6163550;23;20025;-85
2023/11/30 07:06:02;;;;;;;18.98;10.43;;;;;;;3.65;71.02;98200.13;6167083;23;20352;-87
2023/11/30 07:08:28;;;;;;;23.67;10.10;;;;;;;3.27;71.19;98148.81;6222278;23;20016;-86
2023/11/30 07:10:54;;;;;;;19.50;9.30;;;;;;;3.54;70.96;98188.66;6199212;23;20036;-86
2023/11/30 07:13:21;;;;;;;19.42;10.23;;;;;;;3.25;70.24;98135.63;6231857;23;20016;-89
2023/11/30 07:15:47;;;;;;;17.60;9.02;;;;;;;3.11;70.33;98115.84;6229195;23;20069;-87
2023/11/30 07:18:15;;;;;;;19.92;8.85;;;;;;;3.80;70.64;98213.38;6208739;23;20076;-88
2023/11/30 07:20:42;;;;;;;18.23;9.13;;;;;;;3.53;69.39;98154.63;6229406;23;20004;-87
2023/11/30 07:23:13;;;;;;;13.85;7.40;;;;;;;3.17;69.41;98120.06;6179551;23;20020;-85
2023/11/30 07:26:10;;;;;;;11.52;7.00;;;;;;;3.41;69.22;98155.09;6238017;23;20025;-89
2023/11/30 07:28:46;;;;;;;13.90;7.60;;;;;;;3.75;68.77;98208.06;6232981;23;20024;-86
2023/11/30 07:31:50;;;;;;;17.50;7.70;;;;;;;3.58;69.42;98232.91;6210124;23;20050;-88
2023/11/30 07:34:17;;;;;;;11.60;6.60;;;;;;;2.92;69.87;98159.06;6212673;23;20021;-87
2023/11/30 07:36:43;;;;;;;16.27;7.80;;;;;;;3.41;70.21;98217.25;6229669;23;20036;-88
2023/11/30 07:39:11;;;;;;;11.13;7.05;;;;;;;3.26;70.02;98198.53;6226717;23;20012;-89
2023/11/30 07:41:44;;;;;;;16.95;8.35;;;;;;;2.97;69.93;98183.28;6226283;23;20076;-91
2023/11/30 07:44:12;;;;;;;14.55;6.85;;;;;;;2.88;69.54;98212.03;6202247;23;20482;-90
2023/11/30 07:46:38;;;;;;;13.25;7.18;;;;;;;2.64;69.86;98203.13;6206030;23;20027;-88
2023/11/30 07:49:59;;;;;;;13.95;6.43;;;;;;;2.78;69.91;98247.22;6209314;23;20028;-90
2023/11/30 07:52:26;;;;;;;11.35;6.72;;;;;;;2.02;70.39;98171.47;6182588;23;20051;-91
2023/11/30 07:55:18;;;;;;;12.13;7.20;;;;;;;2.05;70.35;98157.41;6232579;23;20047;-88
2023/11/30 07:58:11;;;;;;;13.55;6.70;;;;;;;2.45;70.21;98252.44;6200910;23;20021;-88
2023/11/30 08:00:37;;;;;;;16.40;7.30;;;;;;;2.55;70.19;98252.34;6226602;23;20095;-87
2023/11/30 08:03:04;;;;;;;13.75;6.68;;;;;;;2.45;70.16;98254.31;6226629;23;20051;-88
2023/11/30 08:05:31;;;;;;;12.77;6.50;;;;;;;2.15;69.76;98226.56;6205879;23;20024;-89
2023/11/30 08:07:57;;;;;;;;;;;;;;;2.40;70.06;98262.47;6205010;23;20021;-89
2023/11/30 08:10:26;;;;;;;11.95;6.75;;;;;;;2.28;70.25;98268.25;6184171;22;19938;-87
2023/11/30 08:13:50;;;;;;;11.68;7.13;;;;;;;2.18;70.33;98266.44;6192837;22;20075;-88
2023/11/30 08:16:16;;;;;;;11.95;6.65;;;;;;;2.11;70.58;98252.50;6218067;22;20170;-89
2023/11/30 08:18:44;;;;;;;14.57;7.72;;;;;;;1.92;70.56;98201.22;6218045;22;20030;-91
2023/11/30 08:21:47;;;;;;;21.38;8.82;;;;;;;2.19;70.03;98233.03;6251398;22;20023;-90
2023/11/30 08:24:13;;;;;;;13.68;7.18;;;;;;;2.25;69.51;98245.38;6221719;22;20020;-90
2023/11/30 08:26:50;;;;;;;17.23;8.80;;;;;;;2.33;69.59;98249.34;6217805;22;20015;-89
2023/11/30 08:34:13;;;;;;;11.27;7.10;;;;;;;2.23;68.59;98228.66;6173006;23;20044;-88
2023/11/30 08:36:43;;;;;;;10.30;6.47;;;;;;;1.96;68.88;98225.69;6152514;23;20021;-91
2023/11/30 08:39:10;;;;;;;4.60;3.42;;;;;;;1.98;69.08;98258.53;6099832;23;20032;-91
2023/11/30 08:42:28;;;;;;;9.68;5.18;;;;;;;1.92;69.71;98270.44;6148987;23;20017;-91
2023/11/30 08:45:04;;;;;;;12.52;7.30;;;;;;;2.11;69.94;98271.38;6181606;22;20030;-89
2023/11/30 08:48:29;;;;;;;19.83;7.72;;;;;;;1.78;68.17;98184.06;6279747;22;20024;-89
2023/11/30 08:50:57;;;;;;;14.30;7.05;;;;;;;1.83;68.71;98236.03;6227507;22;20023;-89
2023/11/30 08:53:50;;;;;;;17.02;8.02;;;;;;;1.62;68.99;98173.44;6277348;22;20023;-89
2023/11/30 08:56:20;;;;;;;18.17;8.82;;;;;;;2.19;69.05;98233.03;6245695;22;20004;-88
2023/11/30 08:58:46;;;;;;;18.38;8.73;;;;;;;2.18;68.19;98219.81;6271512;22;20002;-89
2023/11/30 09:01:39;;;;;;;17.13;8.90;;;;;;;2.45;68.00;98273.19;6223377;22;20102;-90
2023/11/30 09:04:05;;;;;;;26.95;10.10;;;;;;;2.19;68.14;98224.94;6219503;22;20011;-90
2023/11/30 09:07:24;;;;;;;23.00;11.05;;;;;;;2.68;67.64;98275.13;6245455;22;20026;-88
2023/11/30 09:10:20;;;;;;;14.70;8.80;;;;;;;2.79;66.31;98268.53;6247151;22;20018;-89
2023/11/30 09:12:49;;;;;;;16.80;8.38;;;;;;;2.32;66.96;98210.78;6273089;22;20015;-90
2023/11/30 09:16:10;;;;;;;20.60;7.28;;;;;;;2.77;66.48;98273.41;6236743;22;20024;-89
2023/11/30 09:19:05;;;;;;;16.52;9.02;;;;;;;2.42;66.95;98230.63;6254601;22;20016;-90
2023/11/30 09:22:09;;;;;;;14.40;7.93;;;;;;;2.33;67.11;98269.00;6226024;22;20043;-90
2023/11/30 09:24:39;;;;;;;14.13;8.00;;;;;;;2.01;66.95;98188.69;6221988;22;20030;-88
2023/11/30 09:27:08;;;;;;;16.38;8.02;;;;;;;2.56;66.47;98261.22;6246427;22;20027;-87
2023/11/30 09:30:35;;;;;;;12.23;7.03;;;;;;;2.23;66.41;98244.03;6272221;22;19995;-92
2023/11/30 10:26:52;;;;;;;6.90;3.22;;;;;;;1.86;57.77;98231.97;6263762;22;20018;-90
2023/11/30 10:45:39;;;;;;;8.40;3.65;;;;;;;2.13;56.52;98341.19;6270891;22;20027;-91
2023/11/30 10:49:15;;;;;;;6.88;3.55;;;;;;;1.71;57.92;98321.00;6272537;22;20043;-88
2023/11/30 10:52:34;;;;;;;8.05;4.60;;;;;;;1.93;57.97;98348.34;6271271;22;19996;-89
2023/11/30 10:55:27;;;;;;;7.82;4.45;;;;;;;1.40;57.81;98254.66;6115507;23;20005;-92
2023/11/30 10:57:55;;;;;;;12.77;4.32;;;;;;;2.07;57.92;98357.38;6133214;23;20023;-90
2023/11/30 11:00:42;;;;;;;7.13;4.30;;;;;;;1.63;57.93;98284.69;6182969;23;20051;-89
2023/11/30 11:03:22;;;;;;;6.28;3.97;;;;;;;1.84;58.69;98353.50;6156646;23;20028;-89
2023/11/30 11:06:01;;;;;;;6.13;3.80;;;;;;;1.58;58.30;98336.69;6097315;23;20024;-87
2023/11/30 11:08:38;;;;;;;6.65;3.65;;;;;;;1.54;59.78;98345.59;6142333;23;20024;-87
2023/11/30 11:11:42;;;;;;;7.93;4.22;;;;;;;1.57;59.52;98369.28;6145028;23;20022;-86
2023/11/30 11:14:45;;;;;;;9.90;3.72;;;;;;;1.55;59.45;98380.31;6146087;23;20022;-89
2023/11/30 11:18:05;;;;;;;6.28;3.90;;;;;;;1.30;59.35;98348.16;6083456;23;20018;-85
2023/11/30 11:21:02;;;;;;;6.82;3.53;;;;;;;1.05;59.15;98279.88;6086467;23;20082;-88
2023/11/30 11:23:44;;;;;;;16.20;4.70;;;;;;;1.37;59.14;98380.97;6085149;23;20023;-88
2023/11/30 11:26:15;;;;;;;7.10;3.85;;;;;;;0.97;59.62;98382.72;6088594;23;20023;-86
2023/11/30 11:28:43;;;;;;;6.15;3.78;;;;;;;0.91;60.67;98368.44;6061311;23;19995;-86
2023/11/30 11:31:15;;;;;;;5.85;3.03;;;;;;;1.03;60.21;98388.88;6065268;23;20006;-84
2023/11/30 11:33:42;;;;;;;6.93;3.78;;;;;;;0.75;60.56;98356.13;6084580;23;20030;-85
2023/11/30 11:40:00;;;;;;;21.70;4.75;;;;;;;0.63;63.02;98355.59;6082174;23;20019;-86
2023/11/30 11:42:32;;;;;;;8.15;4.50;;;;;;;1.02;62.75;98389.94;6089041;23;20029;-85
2023/11/30 11:45:04;;;;;;;7.68;4.57;;;;;;;0.76;62.43;98368.47;6113172;23;20026;-86
2023/11/30 11:47:32;;;;;;;11.35;4.32;;;;;;;1.13;62.33;98408.50;6113487;23;19995;-87
2023/11/30 11:50:03;;;;;;;10.75;5.50;;;;;;;1.21;61.68;98415.19;6110587;23;20022;-87
2023/11/30 11:52:33;;;;;;;10.00;4.78;;;;;;;0.80;61.70;98382.22;6091534;23;20018;-87
2023/11/30 11:56:07;;;;;;;10.98;4.35;;;;;;;1.05;61.71;98432.47;6139885;23;20022;-87
2023/11/30 11:58:53;;;;;;;6.63;3.75;;;;;;;0.47;61.36;98398.66;6140701;23;20337;-89
2023/11/30 12:01:41;;;;;;;10.27;4.03;;;;;;;0.11;61.71;98379.00;6120506;23;20009;-90
2023/11/30 12:04:09;;;;;;;6.60;4.15;;;;;;;0.04;61.98;98380.34;6096552;23;20081;-87
2023/11/30 12:06:55;;;;;;;6.78;4.30;;;;;;;0.19;61.72;98437.59;6145762;23;20025;-86
2023/11/30 12:09:24;;;;;;;8.10;4.35;;;;;;;-0.08;61.78;98385.97;6122251;23;20045;-87
2023/11/30 12:12:12;;;;;;;16.13;5.25;;;;;;;0.39;61.70;98433.31;6148313;23;20028;-89
2023/11/30 12:14:41;;;;;;;6.78;4.40;;;;;;;-0.02;60.73;98383.03;6091446;23;20074;-88
2023/11/30 12:17:30;;;;;;;8.00;4.53;;;;;;;-0.03;61.16;98389.47;6114742;23;20025;-86
2023/11/30 12:21:03;;;;;;;10.57;4.90;;;;;;;-0.05;61.04;98409.63;6117989;23;20136;-88
2023/11/30 12:23:48;;;;;;;6.28;4.40;;;;;;;-0.68;60.74;98339.91;6243159;22;20026;-89
2023/11/30 12:26:35;;;;;;;6.90;4.00;;;;;;;-0.29;60.46;98380.56;6251330;22;20024;-87
2023/11/30 12:32:10;;;;;;;8.18;4.68;;;;;;;0.19;60.87;98461.78;6148814;23;20017;-87
2023/11/30 12:34:37;;;;;;;8.77;4.70;;;;;;;-0.30;61.30;98405.81;6147677;23;20045;-89
2023/11/30 12:37:23;;;;;;;;;;;;;;;0.09;61.46;98467.13;6148021;23;20033;-88
2023/11/30 12:39:53;;;;;;;12.13;5.18;;;;;;;-0.11;61.47;98429.47;6174885;23;19932;-86
2023/11/30 12:42:44;;;;;;;16.58;5.25;;;;;;;0.18;61.33;98454.00;6131863;23;20005;-88
2023/11/30 12:45:16;;;;;;;10.82;5.65;;;;;;;0.17;61.50;98417.47;6177321;23;20048;-87
2023/11/30 12:48:07;;;;;;;15.68;5.18;;;;;;;0.10;61.20;98406.13;6135855;23;20017;-86
2023/11/30 12:50:37;;;;;;;9.35;4.47;;;;;;;-0.05;61.22;98401.56;6127682;23;20461;-88
2023/11/30 12:53:07;;;;;;;9.60;5.78;;;;;;;0.04;61.72;98448.31;6264629;23;20589;-86
2023/11/30 12:55:39;;;;;;;10.73;5.53;;;;;;;-0.01;62.17;98445.63;6244225;23;20020;-88
2023/11/30 12:58:18;;;;;;;8.77;4.75;;;;;;;0.07;61.86;98469.28;6218795;23;20024;-88
2023/11/30 13:00:45;;;;;;;7.95;4.57;;;;;;;-0.09;61.44;98427.34;6268466;23;20007;-86
2023/11/30 13:03:14;;;;;;;7.50;4.55;;;;;;;0.00;61.79;98476.81;6247469;23;20024;-89
2023/11/30 13:05:49;;;;;;;8.70;4.80;;;;;;;-0.40;61.86;98424.53;6218175;23;20020;-85
2023/11/30 13:08:18;;;;;;;8.48;4.18;;;;;;;0.14;61.82;98494.03;6215954;23;20016;-89
2023/11/30 13:10:47;;;;;;;10.65;5.78;;;;;;;-0.62;61.52;98394.41;6216340;23;20020;-90
2023/11/30 13:13:16;;;;;;;10.77;5.28;;;;;;;0.20;61.95;98500.22;6191980;23;20091;-86
2023/11/30 13:15:45;;;;;;;9.63;5.93;;;;;;;0.04;62.06;98472.50;6217955;23;20075;-87
2023/11/30 13:18:19;;;;;;;5.97;3.78;;;;;;;-0.13;61.77;98442.34;6215437;23;20098;-87
2023/11/30 13:20:47;;;;;;;11.75;5.35;;;;;;;-0.25;61.46;98439.91;6167647;23;20023;-85
2023/11/30 13:23:42;;;;;;;8.43;5.00;;;;;;;-0.35;61.65;98438.00;6219110;23;20020;-87
2023/11/30 13:26:36;;;;;;;8.05;4.80;;;;;;;-0.03;61.86;98502.31;6271108;22;20000;-86
2023/11/30 13:29:29;;;;;;;8.57;4.80;;;;;;;-0.07;62.18;98508.44;6184260;23;20048;-86
2023/11/30 13:31:58;;;;;;;9.15;5.05;;;;;;;-0.60;62.34;98444.06;6210268;23;20088;-89
2023/11/30 13:35:06;;;;;;;10.82;6.63;;;;;;;0.01;61.55;98507.16;6183172;23;20096;-87
2023/11/30 13:38:01;;;;;;;13.68;6.35;;;;;;;0.03;61.90;98503.13;6211242;23;20049;-85
2023/11/30 13:40:50;;;;;;;8.48;4.43;;;;;;;-0.39;62.08;98469.13;6184645;23;20027;-88
2023/11/30 13:43:29;;;;;;;8.52;5.07;;;;;;;-0.34;61.79;98476.41;6166641;23;20001;-87